ADDS METAR Data INFO
IDs: Format: Raw Decoded Include TAF

Data at: 2213 UTC 24 Jun 2018

KSNA 242153Z 21012KT 10SM FEW027 22/13 A2995 RMK AO2 SLP140 T02170133
KSNA 242053Z 20012G16KT 10SM FEW024 FEW028 22/13 A2995 RMK AO2 SLP141 T02220133 50000
KSNA 241953Z 21010KT 10SM FEW028 22/14 A2996 RMK AO2 SLP143 T02170139
KSNA 241853Z 21012KT 10SM FEW022 FEW028 22/14 A2995 RMK AO2 SLP142 T02220139
KSNA 241801Z 21009KT 10SM FEW021 SCT027 22/13 A2995 RMK AO2 T02170133
KSNA 241753Z VRB05KT 10SM BKN025 21/13 A2995 RMK AO2 SLP141 T02110128 10211 20178 51009
KSNA 241653Z VRB05KT 10SM OVC024 20/13 A2995 RMK AO2 SLP139 T02000128
KSNA 241553Z 14004KT 10SM OVC019 19/13 A2994 RMK AO2 SLP136 T01890128
KSNA 241453Z 00000KT 10SM OVC018 18/13 A2992 RMK AO2 SLP133 T01830128 53016
KSNA 241353Z 18007KT 10SM OVC016 18/13 A2990 RMK AO2 SLP126 T01780128
KSNA 241253Z 15004KT 10SM OVC015 18/13 A2989 RMK AO2 SLP122 T01780133
KSNA 241235Z AUTO 15005KT 10SM OVC016 18/13 A2989 RMK AO2 T01780133
KSNA 241153Z AUTO 15004KT 9SM OVC014 18/13 A2988 RMK AO2 SLP116 T01780133 10183 20178 53002
KSNA 241107Z AUTO 12005KT 10SM OVC015 18/13 A2987 RMK AO2 T01780133
KSNA 241053Z AUTO 13006KT 10SM OVC014 18/13 A2987 RMK AO2 SLP112 T01780133
KSNA 240953Z AUTO VRB04KT 10SM OVC014 18/13 A2987 RMK AO2 SLP113 T01780133
KSNA 240853Z AUTO 15005KT 10SM OVC014 18/13 A2987 RMK AO2 SLP113 T01780133 55003
KSNA 240819Z AUTO 16005KT 10SM OVC014 18/13 A2987 RMK AO2 T01780133
KSNA 240753Z AUTO 16006KT 10SM OVC015 18/13 A2987 RMK AO2 SLP112 T01780133 402170178
KSNA 240653Z AUTO 14005KT 10SM OVC016 18/13 A2987 RMK AO2 SLP113 T01780133
KSNA 240553Z 14006KT 10SM OVC016 18/13 A2988 RMK AO2 SLP116 LAST T01830133 10206 20178 51011
KSNA 240453Z 17008KT 10SM OVC017 18/13 A2987 RMK AO2 SLP114 T01830133
KSNA 240353Z 16007KT 10SM OVC018 18/13 A2985 RMK AO2 SLP107 T01830133
KSNA 240253Z 18008KT 10SM BKN018 18/13 A2985 RMK AO2 SLP106 T01830133 55002
KSNA 240211Z 19009KT 10SM OVC019 19/13 A2984 RMK AO2 T01890128
KSNA 240209Z 19010KT 1 1/2SM HZ OVC019 19/13 A2984 RMK AO2 T01890128
KSNA 240153Z 18010KT 10SM FEW017 BKN020 19/13 A2984 RMK AO2 SLP102 T01890128
KSNA 240124Z 19013KT 10SM FEW017 BKN020 19/13 A2984 RMK AO2 T01940133
KSNA 240053Z 19012KT 10SM SCT018 SCT022 20/13 A2984 RMK AO2 SLP103 T02000133
KSNA 240047Z 17011KT 10SM SCT018 SCT022 20/13 A2984 RMK AO2
KSNA 232353Z 18010KT 10SM FEW015 BKN018 20/13 A2985 RMK AO2 SLP108 T02000133 10217 20194 58009
KSNA 232253Z 19011KT 10SM FEW016 BKN019 20/14 A2986 RMK AO2 SLP111 T02000139
KSNA 232153Z 18012KT 10SM BKN019 21/14 A2987 RMK AO2 SLP115 T02060139
KSNA 232053Z 17012G20KT 10SM OVC021 22/14 A2988 RMK AO2 SLP117 T02170139 51003
KSNA 231953Z 19016G20KT 10SM OVC019 21/14 A2988 RMK AO2 SLP116 T02110139
KSNA 231853Z 18011KT 10SM OVC015 21/14 A2988 RMK AO2 SLP117 T02060139
KSNA 231753Z 18012KT 10SM OVC017 20/14 A2987 RMK AO2 SLP114 T02000144 10206 20178 51012
KSNA 231653Z 20006KT 10SM OVC016 19/14 A2986 RMK AO2 SLP109 T01940144
KSNA 231553Z 13005KT 10SM OVC016 19/14 A2985 RMK AO2 SLP108 T01890139
KSNA 231525Z 12005KT 10SM OVC015 19/14 A2984 RMK AO2 T01890139
KSNA 231453Z 16007KT 10SM OVC013 18/14 A2984 RMK AO2 SLP102 T01830139 53012
KSNA 231353Z COR 18005KT 10SM OVC011 18/14 A2982 RMK AO2 SLP096 T01830144
KSNA 231314Z 15005KT 6SM BR OVC010 18/14 A2981 RMK AO2 T01780144
KSNA 231253Z 16006KT 5SM BR OVC009 18/15 A2981 RMK AO2 SLP092 T01780150
KSNA 231153Z AUTO 19004KT 9SM OVC008 18/15 A2980 RMK AO2 SLP090 T01780150 10189 20178 55002
KSNA 231053Z AUTO 00000KT 8SM OVC007 18/16 A2980 RMK AO2 SLP089 T01780156